Time;durP1;ratioP1;P1;durP2;ratioP2;P2;SDS_P1;SDS_P2;PMS_P1;PMS_P2;Temp;Humidity;BMP_temperature;BMP_pressure;BME280_temperature;BME280_humidity;BME280_pressure;Samples;Min_cycle;Max_cycle;Signal;HPM_P1;HPM_P2
2023/08/03 00:01:41;;;;;;;1.67;1.57;;;16.70;99.90;;;;;;4973185;28;21312;-73
2023/08/03 00:04:08;;;;;;;1.33;0.87;;;16.70;99.90;;;;;;4980769;28;21057;-73
2023/08/03 00:06:35;;;;;;;3.80;0.77;;;16.70;99.90;;;;;;4974660;28;20684;-73
2023/08/03 00:09:03;;;;;;;1.30;1.17;;;16.70;99.90;;;;;;4979362;28;20661;-73
2023/08/03 00:11:30;;;;;;;3.43;1.47;;;16.70;99.90;;;;;;4973132;28;20662;-73
2023/08/03 00:13:57;;;;;;;1.77;1.53;;;16.70;99.90;;;;;;4978196;28;20626;-73
2023/08/03 00:16:23;;;;;;;2.37;1.30;;;16.80;99.90;;;;;;4978108;28;20685;-73
2023/08/03 00:18:50;;;;;;;1.03;0.93;;;16.80;99.90;;;;;;4982421;28;20665;-73
2023/08/03 00:21:17;;;;;;;1.20;1.10;;;16.80;99.90;;;;;;4980008;28;20653;-73
2023/08/03 00:23:44;;;;;;;1.20;1.10;;;16.80;99.90;;;;;;4979695;28;20633;-73
2023/08/03 00:26:12;;;;;;;1.93;1.47;;;16.90;99.90;;;;;;4977493;28;20696;-73
2023/08/03 00:28:38;;;;;;;1.50;1.40;;;16.90;99.90;;;;;;4979664;28;20729;-73
2023/08/03 00:31:05;;;;;;;5.80;0.90;;;16.90;99.90;;;;;;4973622;28;20741;-73
2023/08/03 00:33:32;;;;;;;1.73;1.23;;;16.90;99.90;;;;;;4980468;28;20632;-73
2023/08/03 00:35:59;;;;;;;1.10;1.00;;;16.90;99.90;;;;;;4981593;28;20649;-73
2023/08/03 00:38:25;;;;;;;3.13;1.40;;;16.90;99.90;;;;;;4980790;28;20841;-73
2023/08/03 00:40:52;;;;;;;2.00;1.40;;;16.90;99.90;;;;;;4982635;28;20657;-73
2023/08/03 00:43:21;;;;;;;2.47;1.80;;;16.90;99.90;;;;;;4986298;28;20639;-73
2023/08/03 00:45:47;;;;;;;2.80;1.30;;;16.80;99.90;;;;;;4983326;28;20645;-73
2023/08/03 00:48:15;;;;;;;0.90;0.77;;;16.90;99.90;;;;;;4981902;28;20683;-73
2023/08/03 00:50:41;;;;;;;1.77;1.20;;;16.90;99.90;;;;;;4980570;28;21098;-73
2023/08/03 00:53:08;;;;;;;1.00;1.00;;;16.90;99.90;;;;;;4975605;28;20646;-73
2023/08/03 00:55:35;;;;;;;3.80;1.50;;;16.90;99.90;;;;;;4984165;28;20659;-73
2023/08/03 00:58:03;;;;;;;1.27;1.17;;;16.80;99.90;;;;;;4981335;28;20651;-73
2023/08/03 01:00:31;;;;;;;1.90;1.40;;;16.80;99.90;;;;;;4980415;28;20675;-73
2023/08/03 01:02:59;;;;;;;1.63;1.00;;;16.80;99.90;;;;;;4982783;28;20729;-74
2023/08/03 01:05:26;;;;;;;4.70;1.80;;;16.80;99.90;;;;;;4980017;28;20772;-74
2023/08/03 01:07:53;;;;;;;1.07;0.90;;;16.80;99.90;;;;;;4981362;28;20630;-73
2023/08/03 01:10:21;;;;;;;1.33;0.70;;;16.90;99.90;;;;;;4979322;28;20632;-73
2023/08/03 01:12:48;;;;;;;3.23;1.50;;;16.90;99.90;;;;;;4980611;28;20668;-73
2023/08/03 01:15:16;;;;;;;1.07;0.97;;;16.80;99.90;;;;;;4982479;28;20649;-73
2023/08/03 01:17:44;;;;;;;1.70;1.37;;;16.80;99.90;;;;;;4976949;28;20641;-74
2023/08/03 01:20:11;;;;;;;3.30;1.23;;;16.70;99.90;;;;;;4983000;28;20649;-74
2023/08/03 01:22:42;;;;;;;1.20;0.90;;;16.70;99.90;;;;;;4979626;28;20625;-74
2023/08/03 01:25:10;;;;;;;1.57;1.00;;;16.80;99.90;;;;;;4980526;28;20732;-73
2023/08/03 01:27:37;;;;;;;1.23;0.97;;;16.70;99.90;;;;;;4980795;28;21771;-73
2023/08/03 01:30:04;;;;;;;1.40;1.27;;;16.70;99.90;;;;;;4981386;28;20629;-74
2023/08/03 01:32:32;;;;;;;3.07;1.00;;;16.80;99.90;;;;;;4979717;28;20670;-73
2023/08/03 01:34:59;;;;;;;1.50;0.90;;;16.70;99.90;;;;;;4980198;28;20736;-73
2023/08/03 01:37:26;;;;;;;0.60;0.60;;;16.80;99.90;;;;;;4982433;28;21152;-73
2023/08/03 01:39:55;;;;;;;1.97;1.17;;;16.80;99.90;;;;;;4980118;28;20654;-73
2023/08/03 01:42:22;;;;;;;0.63;0.60;;;16.80;99.90;;;;;;4979641;28;21106;-73
2023/08/03 01:44:49;;;;;;;0.93;0.90;;;16.80;99.90;;;;;;4983171;28;21614;-72
2023/08/03 01:47:17;;;;;;;1.07;0.97;;;16.80;99.90;;;;;;4980746;28;21304;-72
2023/08/03 01:49:44;;;;;;;1.27;0.93;;;16.80;99.90;;;;;;4981992;28;20621;-73
2023/08/03 01:52:11;;;;;;;0.87;0.80;;;16.70;99.90;;;;;;4981877;28;21263;-72
2023/08/03 01:54:38;;;;;;;0.93;0.93;;;16.70;99.90;;;;;;4981379;28;20724;-72
2023/08/03 01:57:07;;;;;;;0.83;0.77;;;16.70;99.90;;;;;;4980242;28;20652;-72
2023/08/03 01:59:34;;;;;;;1.90;1.27;;;16.70;99.90;;;;;;4978376;28;21220;-72
2023/08/03 02:02:01;;;;;;;0.97;0.60;;;16.70;99.90;;;;;;4972157;28;20649;-73
2023/08/03 02:04:28;;;;;;;1.70;1.10;;;16.60;99.90;;;;;;4979559;28;20622;-73
2023/08/03 02:06:58;;;;;;;1.40;0.83;;;16.60;99.90;;;;;;4981840;28;20649;-73
2023/08/03 02:09:24;;;;;;;0.90;0.83;;;16.60;99.90;;;;;;4981566;28;20728;-73
2023/08/03 02:11:51;;;;;;;0.97;0.60;;;16.60;99.90;;;;;;4977077;28;20651;-73
2023/08/03 02:14:19;;;;;;;1.07;0.97;;;16.60;99.90;;;;;;4980018;28;20626;-73
2023/08/03 02:16:46;;;;;;;2.67;1.17;;;16.60;99.90;;;;;;4981195;28;21238;-73
2023/08/03 02:19:13;;;;;;;2.20;1.23;;;16.50;99.90;;;;;;4981401;28;20719;-73
2023/08/03 02:21:40;;;;;;;1.50;0.80;;;16.50;99.90;;;;;;4980245;28;21221;-73
2023/08/03 02:24:07;;;;;;;1.07;0.70;;;16.50;99.90;;;;;;4978859;28;20632;-73
2023/08/03 02:26:34;;;;;;;1.60;1.03;;;16.50;99.90;;;;;;4978606;28;20648;-73
2023/08/03 02:29:01;;;;;;;0.93;0.80;;;16.50;99.90;;;;;;4979572;28;20638;-73
2023/08/03 02:31:31;;;;;;;2.40;1.10;;;16.40;99.90;;;;;;4980207;28;20700;-73
2023/08/03 02:33:58;;;;;;;1.20;0.87;;;16.40;99.90;;;;;;4985544;28;20630;-73
2023/08/03 02:36:25;;;;;;;2.57;0.83;;;16.40;99.90;;;;;;4978212;28;21234;-73
2023/08/03 02:38:52;;;;;;;2.70;0.90;;;16.40;99.90;;;;;;4977805;28;20653;-73
2023/08/03 02:41:19;;;;;;;2.00;0.70;;;16.40;99.90;;;;;;4988550;28;20944;-73
2023/08/03 02:43:46;;;;;;;0.97;0.87;;;16.50;99.90;;;;;;4982823;28;20633;-73
2023/08/03 02:46:13;;;;;;;0.93;0.77;;;16.50;99.90;;;;;;4979917;28;20655;-73
2023/08/03 02:48:42;;;;;;;0.70;0.60;;;16.50;99.90;;;;;;4978174;28;21214;-73
2023/08/03 02:51:09;;;;;;;1.40;0.80;;;16.40;99.90;;;;;;4979502;28;20758;-73
2023/08/03 02:53:36;;;;;;;1.40;0.87;;;16.30;99.90;;;;;;4974599;28;20661;-73
2023/08/03 02:56:03;;;;;;;0.70;0.70;;;16.40;99.90;;;;;;4980571;28;21016;-73
2023/08/03 02:58:31;;;;;;;2.30;1.00;;;16.30;99.90;;;;;;4979678;28;21047;-73
2023/08/03 03:00:58;;;;;;;1.37;0.73;;;16.30;99.90;;;;;;4979759;28;20657;-73
2023/08/03 03:03:25;;;;;;;1.07;0.80;;;16.30;99.90;;;;;;4979701;28;20630;-73
2023/08/03 03:05:53;;;;;;;1.53;0.70;;;16.30;99.90;;;;;;4981104;28;21207;-73
2023/08/03 03:08:21;;;;;;;3.97;0.90;;;16.20;99.90;;;;;;4981013;28;21216;-73
2023/08/03 03:10:48;;;;;;;2.50;1.53;;;16.30;99.90;;;;;;4976878;28;20732;-73
2023/08/03 03:13:15;;;;;;;1.47;1.37;;;16.30;99.90;;;;;;4975588;28;20622;-73
2023/08/03 03:15:42;;;;;;;2.80;0.87;;;16.30;99.90;;;;;;4982153;28;20657;-73
2023/08/03 03:18:09;;;;;;;2.23;1.87;;;16.20;99.90;;;;;;4978606;28;20694;-73
2023/08/03 03:20:36;;;;;;;5.37;1.43;;;16.30;99.90;;;;;;4980067;28;20728;-73
2023/08/03 03:23:04;;;;;;;2.10;0.87;;;16.30;99.90;;;;;;4975238;28;20629;-73
2023/08/03 03:25:31;;;;;;;2.00;1.10;;;16.30;99.90;;;;;;4977543;28;20661;-73
2023/08/03 03:28:04;;;;;;;0.50;0.43;;;16.20;99.90;;;;;;4979436;28;20662;-73
2023/08/03 03:30:30;;;;;;;5.57;0.93;;;16.20;99.90;;;;;;4980007;28;20718;-73
2023/08/03 03:32:57;;;;;;;0.93;0.80;;;16.30;99.90;;;;;;4979472;28;20643;-73
2023/08/03 03:35:24;;;;;;;1.50;1.40;;;16.20;99.90;;;;;;4977770;28;20793;-73
2023/08/03 03:37:51;;;;;;;4.17;1.00;;;16.20;99.90;;;;;;4977052;28;20952;-72
2023/08/03 03:40:19;;;;;;;1.60;1.17;;;16.20;99.90;;;;;;4981517;28;20665;-72
2023/08/03 03:42:46;;;;;;;1.00;0.90;;;16.20;99.90;;;;;;4973619;28;20626;-73
2023/08/03 03:45:12;;;;;;;2.83;0.77;;;16.20;99.90;;;;;;4978561;28;20644;-72
2023/08/03 03:47:39;;;;;;;0.60;0.60;;;16.20;99.90;;;;;;4980133;28;20656;-74
2023/08/03 03:50:06;;;;;;;5.60;1.30;;;16.20;99.90;;;;;;4980168;28;21194;-72
2023/08/03 03:52:33;;;;;;;1.60;0.73;;;16.10;99.90;;;;;;4977708;28;20617;-73
2023/08/03 03:55:00;;;;;;;1.90;0.93;;;16.10;99.90;;;;;;4980042;28;20745;-73
2023/08/03 03:57:28;;;;;;;0.60;0.60;;;16.10;99.90;;;;;;4979523;28;20665;-73
2023/08/03 03:59:55;;;;;;;1.63;0.70;;;16.20;99.90;;;;;;4979536;28;20654;-72
2023/08/03 04:02:22;;;;;;;0.70;0.70;;;16.10;99.90;;;;;;4973315;28;20661;-73
2023/08/03 04:04:48;;;;;;;1.47;1.23;;;16.10;99.90;;;;;;4977294;28;20630;-73
2023/08/03 04:07:15;;;;;;;1.67;1.07;;;16.10;99.90;;;;;;4979410;28;20653;-73
2023/08/03 04:09:42;;;;;;;1.03;0.80;;;16.00;99.90;;;;;;4978036;28;20728;-73
2023/08/03 04:12:09;;;;;;;1.40;1.30;;;16.00;99.90;;;;;;4979840;28;20664;-73
2023/08/03 04:14:37;;;;;;;0.73;0.73;;;16.00;99.90;;;;;;4985452;28;20732;-73
2023/08/03 04:17:04;;;;;;;1.60;0.90;;;16.00;99.60;;;;;;4980660;28;20653;-73
2023/08/03 04:19:31;;;;;;;0.77;0.67;;;16.00;99.90;;;;;;4982973;28;20664;-73
2023/08/03 04:21:58;;;;;;;1.17;0.70;;;16.00;99.90;;;;;;4981453;28;20656;-73
2023/08/03 04:24:24;;;;;;;0.57;0.53;;;16.00;99.90;;;;;;4981002;28;20725;-73
2023/08/03 04:26:51;;;;;;;0.60;0.53;;;16.00;99.90;;;;;;4982667;28;20753;-73
2023/08/03 04:29:18;;;;;;;0.50;0.50;;;16.10;99.80;;;;;;4978337;28;20640;-73
2023/08/03 04:31:46;;;;;;;1.33;0.77;;;16.00;99.50;;;;;;4983239;28;20653;-73
2023/08/03 04:34:13;;;;;;;1.40;0.50;;;16.00;99.60;;;;;;4979615;28;20635;-73
2023/08/03 04:36:40;;;;;;;1.50;1.03;;;16.10;99.30;;;;;;4986170;28;21237;-73
2023/08/03 04:39:07;;;;;;;1.20;0.50;;;16.10;98.70;;;;;;4980285;28;20640;-73
2023/08/03 04:41:42;;;;;;;0.40;0.40;;;16.00;99.20;;;;;;4983868;28;20763;-73
2023/08/03 04:44:09;;;;;;;4.00;0.83;;;16.10;99.30;;;;;;4982233;28;20629;-72
2023/08/03 04:46:41;;;;;;;0.63;0.33;;;16.10;99.20;;;;;;4979992;28;20764;-73
2023/08/03 04:49:12;;;;;;;0.40;0.40;;;16.10;98.90;;;;;;4980982;28;20735;-73
2023/08/03 04:51:39;;;;;;;3.90;0.37;;;16.10;99.50;;;;;;4980393;28;20662;-73
2023/08/03 04:54:05;;;;;;;1.23;0.87;;;16.10;99.30;;;;;;4981207;28;21555;-73
2023/08/03 04:56:32;;;;;;;1.33;0.60;;;16.10;99.50;;;;;;4980740;28;21249;-73
2023/08/03 04:58:59;;;;;;;0.67;0.50;;;16.10;99.70;;;;;;4980166;28;21183;-73
2023/08/03 05:01:26;;;;;;;0.40;0.30;;;16.20;99.50;;;;;;4981484;28;20665;-73
2023/08/03 05:03:52;;;;;;;1.17;0.60;;;16.20;99.30;;;;;;4982398;28;20742;-73
2023/08/03 05:06:21;;;;;;;0.87;0.70;;;16.30;99.60;;;;;;4979618;28;20668;-73
2023/08/03 05:08:47;;;;;;;0.50;0.50;;;16.40;99.90;;;;;;4979696;28;21196;-72
2023/08/03 05:11:14;;;;;;;0.90;0.80;;;16.40;99.80;;;;;;4982341;28;20652;-73
2023/08/03 05:13:41;;;;;;;1.33;0.83;;;16.50;99.50;;;;;;4986079;28;20632;-73
2023/08/03 05:16:10;;;;;;;0.50;0.40;;;16.50;99.70;;;;;;4980355;28;20660;-73
2023/08/03 05:18:37;;;;;;;0.50;0.40;;;16.40;99.90;;;;;;4974065;28;20641;-72
2023/08/03 05:21:04;;;;;;;1.10;0.47;;;16.40;99.60;;;;;;4980082;28;20671;-72
2023/08/03 05:23:32;;;;;;;0.40;0.30;;;16.40;99.90;;;;;;4974846;28;20727;-72
2023/08/03 05:25:59;;;;;;;1.00;0.50;;;16.40;99.90;;;;;;4980785;28;20660;-72
2023/08/03 05:28:26;;;;;;;0.77;0.50;;;16.50;99.90;;;;;;4983161;28;20640;-72
2023/08/03 05:30:53;;;;;;;0.40;0.37;;;16.40;99.90;;;;;;4980371;28;20757;-72
2023/08/03 05:33:20;;;;;;;0.50;0.30;;;16.40;99.90;;;;;;4979416;28;20755;-72
2023/08/03 05:35:48;;;;;;;0.90;0.60;;;16.40;99.20;;;;;;4979422;28;20656;-72
2023/08/03 05:38:15;;;;;;;1.83;0.80;;;16.40;99.80;;;;;;4983921;28;21420;-71
2023/08/03 05:40:44;;;;;;;1.67;0.90;;;16.40;99.50;;;;;;4977706;28;20678;-72
2023/08/03 05:43:11;;;;;;;2.23;0.87;;;16.40;99.40;;;;;;4980823;28;20648;-72
2023/08/03 05:45:41;;;;;;;0.53;0.50;;;16.30;99.90;;;;;;4968111;28;21222;-71
2023/08/03 05:48:14;;;;;;;0.40;0.40;;;16.40;99.80;;;;;;4974912;28;21212;-72
2023/08/03 05:50:43;;;;;;;0.70;0.60;;;16.40;99.90;;;;;;4980433;28;20641;-71
2023/08/03 05:53:11;;;;;;;1.33;0.50;;;16.50;99.90;;;;;;4973676;28;20633;-72
2023/08/03 05:55:38;;;;;;;0.67;0.40;;;16.40;99.20;;;;;;4973499;28;20660;-72
2023/08/03 05:58:09;;;;;;;1.43;0.50;;;16.40;99.90;;;;;;4976418;28;20626;-72
2023/08/03 06:00:36;;;;;;;0.60;0.60;;;16.40;99.50;;;;;;4971805;28;20676;-72
2023/08/03 06:03:03;;;;;;;0.80;0.43;;;16.50;99.90;;;;;;4981977;28;21044;-72
2023/08/03 06:05:40;;;;;;;1.77;0.57;;;16.60;99.80;;;;;;4980565;28;20657;-72
2023/08/03 06:08:12;;;;;;;1.07;0.57;;;16.60;99.80;;;;;;4971306;28;20625;-72
2023/08/03 06:10:38;;;;;;;0.90;0.80;;;16.50;99.90;;;;;;4985070;28;20649;-72
2023/08/03 06:13:11;;;;;;;1.83;1.30;;;16.60;99.80;;;;;;4980317;28;21197;-72
2023/08/03 06:15:37;;;;;;;1.10;0.97;;;16.60;99.50;;;;;;4982819;28;20661;-72
2023/08/03 06:18:06;;;;;;;0.83;0.50;;;16.70;99.80;;;;;;4970703;28;20652;-72
2023/08/03 06:20:35;;;;;;;0.50;0.50;;;16.60;99.30;;;;;;4977512;28;20765;-72
2023/08/03 06:23:02;;;;;;;1.70;0.50;;;16.60;99.30;;;;;;4973806;28;21364;-72
2023/08/03 06:25:29;;;;;;;2.73;0.80;;;16.60;99.00;;;;;;4974611;28;20657;-72
2023/08/03 06:27:57;;;;;;;0.60;0.43;;;16.60;98.30;;;;;;4979458;28;20629;-72
2023/08/03 06:30:25;;;;;;;1.13;0.57;;;16.70;98.30;;;;;;4979303;28;21053;-72
2023/08/03 06:32:52;;;;;;;4.10;0.90;;;16.90;98.90;;;;;;4981364;28;20735;-72
2023/08/03 06:35:33;;;;;;;0.60;0.57;;;17.00;98.70;;;;;;4972964;28;21186;-72
2023/08/03 06:38:00;;;;;;;6.00;0.87;;;17.10;97.90;;;;;;4976261;28;20634;-72
2023/08/03 06:40:27;;;;;;;0.97;0.50;;;17.20;97.40;;;;;;4982177;28;21032;-72
2023/08/03 06:42:54;;;;;;;3.73;0.70;;;17.20;95.40;;;;;;4970060;28;20634;-72
2023/08/03 06:45:21;;;;;;;0.57;0.43;;;17.20;95.60;;;;;;4979708;28;20636;-72
2023/08/03 06:47:50;;;;;;;0.40;0.40;;;17.20;95.10;;;;;;4980545;28;21222;-72
2023/08/03 06:50:18;;;;;;;1.53;0.40;;;17.40;94.30;;;;;;4973030;28;20634;-72
2023/08/03 06:52:50;;;;;;;3.10;0.87;;;17.50;93.50;;;;;;4982350;28;20658;-72
2023/08/03 06:55:16;;;;;;;0.83;0.40;;;17.50;93.40;;;;;;4979208;28;21095;-71
2023/08/03 06:57:43;;;;;;;0.50;0.50;;;17.60;94.40;;;;;;4980514;28;20639;-72
2023/08/03 07:00:11;;;;;;;1.90;0.70;;;17.70;94.30;;;;;;4973469;28;20646;-72
2023/08/03 07:02:39;;;;;;;0.70;0.60;;;17.80;93.20;;;;;;4973523;28;20734;-71
2023/08/03 07:05:07;;;;;;;0.83;0.77;;;17.80;92.40;;;;;;4977734;28;20638;-71
2023/08/03 07:07:34;;;;;;;1.03;0.70;;;17.80;93.60;;;;;;4978644;28;21013;-71
2023/08/03 07:10:00;;;;;;;0.80;0.80;;;17.80;94.40;;;;;;4977905;28;20661;-71
2023/08/03 07:12:27;;;;;;;0.80;0.60;;;18.00;93.90;;;;;;4976597;28;20646;-71
2023/08/03 07:14:55;;;;;;;1.43;1.37;;;18.10;93.50;;;;;;4980205;28;20629;-71
2023/08/03 07:17:22;;;;;;;1.87;1.03;;;18.10;93.40;;;;;;4980029;28;20752;-71
2023/08/03 07:19:51;;;;;;;0.77;0.40;;;18.20;92.00;;;;;;4978555;28;20734;-71
2023/08/03 07:22:19;;;;;;;0.63;0.63;;;18.30;93.00;;;;;;4981650;28;20666;-71
2023/08/03 07:24:46;;;;;;;0.70;0.50;;;18.30;92.00;;;;;;4979927;28;20726;-71
2023/08/03 07:27:14;;;;;;;0.63;0.60;;;18.40;93.00;;;;;;4977729;28;20661;-72
2023/08/03 07:29:41;;;;;;;2.73;0.63;;;18.40;91.70;;;;;;4976387;28;21021;-71
2023/08/03 07:32:09;;;;;;;4.40;0.83;;;18.60;92.60;;;;;;4975840;28;20653;-71
2023/08/03 07:34:36;;;;;;;0.70;0.70;;;18.70;92.30;;;;;;4977411;28;21163;-71
2023/08/03 07:37:02;;;;;;;0.70;0.50;;;18.90;91.70;;;;;;4978152;28;21020;-71
2023/08/03 07:39:31;;;;;;;0.57;0.50;;;18.90;91.50;;;;;;4978833;28;20649;-71
2023/08/03 07:41:57;;;;;;;1.60;0.47;;;19.00;91.30;;;;;;4978928;28;21083;-71
2023/08/03 07:44:24;;;;;;;1.60;0.90;;;19.00;91.50;;;;;;4979492;28;20636;-71
2023/08/03 07:46:51;;;;;;;1.60;0.60;;;18.90;90.70;;;;;;4980760;28;20667;-71
2023/08/03 07:49:19;;;;;;;2.37;0.90;;;19.00;92.00;;;;;;4976266;28;21274;-71
2023/08/03 07:51:47;;;;;;;0.60;0.60;;;18.90;90.90;;;;;;4974070;28;21132;-71
2023/08/03 07:54:14;;;;;;;0.93;0.57;;;19.10;90.90;;;;;;4976905;28;20708;-71
2023/08/03 07:56:42;;;;;;;0.80;0.57;;;19.50;91.50;;;;;;4982800;28;20749;-71
2023/08/03 07:59:10;;;;;;;1.33;0.57;;;19.40;89.60;;;;;;4976216;28;20721;-71
2023/08/03 08:01:37;;;;;;;0.40;0.40;;;19.30;90.70;;;;;;4969205;28;20695;-72
2023/08/03 08:04:04;;;;;;;1.43;0.70;;;19.50;91.50;;;;;;4971855;28;20712;-72
2023/08/03 08:06:31;;;;;;;1.50;0.60;;;19.70;91.40;;;;;;4976514;28;21241;-72
2023/08/03 08:08:58;;;;;;;0.50;0.40;;;20.00;91.00;;;;;;4979503;28;21156;-72
2023/08/03 08:11:24;;;;;;;1.67;0.63;;;20.00;90.20;;;;;;4978686;28;20659;-72
2023/08/03 08:13:53;;;;;;;2.10;0.53;;;20.10;90.00;;;;;;4977400;28;20634;-72
2023/08/03 08:16:19;;;;;;;0.50;0.47;;;19.90;90.00;;;;;;4981476;28;20657;-72
2023/08/03 08:18:46;;;;;;;5.63;0.83;;;20.00;90.60;;;;;;4977579;28;20631;-71
2023/08/03 08:21:13;;;;;;;1.50;0.70;;;20.10;90.00;;;;;;4975646;28;20684;-71
2023/08/03 08:23:40;;;;;;;0.50;0.37;;;20.30;90.20;;;;;;4976435;28;20635;-71
2023/08/03 08:26:11;;;;;;;0.60;0.60;;;20.50;88.10;;;;;;4976908;28;20757;-71
2023/08/03 08:28:38;;;;;;;2.63;0.63;;;20.40;88.40;;;;;;4977190;28;20733;-71
2023/08/03 08:31:06;;;;;;;0.50;0.40;;;20.50;88.90;;;;;;4974337;28;21010;-71
2023/08/03 08:33:33;;;;;;;0.67;0.40;;;20.60;88.00;;;;;;4974484;28;20636;-71
2023/08/03 08:36:00;;;;;;;0.87;0.70;;;20.50;90.00;;;;;;4973790;28;20685;-71
2023/08/03 08:38:27;;;;;;;0.57;0.57;;;20.30;87.20;;;;;;4982290;28;20751;-74
2023/08/03 08:40:54;;;;;;;1.57;0.93;;;20.30;89.70;;;;;;4978260;28;20672;-72
2023/08/03 08:43:21;;;;;;;1.50;0.80;;;20.30;89.80;;;;;;4973817;28;20623;-71
2023/08/03 08:45:48;;;;;;;0.60;0.50;;;20.10;89.00;;;;;;4975552;28;20698;-71
2023/08/03 08:48:16;;;;;;;0.63;0.57;;;19.90;87.60;;;;;;4981845;28;21275;-71
2023/08/03 08:50:43;;;;;;;1.03;0.53;;;19.80;88.20;;;;;;4977870;28;20754;-71
2023/08/03 08:53:14;;;;;;;0.40;0.40;;;19.80;86.90;;;;;;4979694;28;20625;-71
2023/08/03 08:55:40;;;;;;;0.50;0.50;;;20.00;88.50;;;;;;4980695;28;20788;-71
2023/08/03 08:58:07;;;;;;;1.00;0.50;;;20.10;87.90;;;;;;4978888;28;20733;-71
2023/08/03 09:00:43;;;;;;;1.53;1.43;;;20.40;88.90;;;;;;4979463;28;20752;-71
2023/08/03 09:03:10;;;;;;;1.03;0.50;;;20.70;85.50;;;;;;4984256;28;20655;-71
2023/08/03 09:05:39;;;;;;;2.57;0.90;;;20.70;84.90;;;;;;4981887;28;20641;-71
2023/08/03 09:08:07;;;;;;;0.70;0.50;;;20.60;86.30;;;;;;4978696;28;21043;-71
2023/08/03 09:10:49;;;;;;;0.63;0.50;;;20.70;85.90;;;;;;4980644;28;20661;-71
2023/08/03 09:13:27;;;;;;;0.57;0.30;;;20.60;87.00;;;;;;4977845;28;20685;-71
2023/08/03 09:15:54;;;;;;;1.30;0.43;;;20.70;88.60;;;;;;4982752;28;21174;-72
2023/08/03 09:18:22;;;;;;;2.10;0.60;;;20.30;84.30;;;;;;4982677;28;20633;-71
2023/08/03 09:20:50;;;;;;;1.20;0.87;;;20.20;85.90;;;;;;4974750;28;20982;-71
2023/08/03 09:23:28;;;;;;;0.60;0.40;;;20.30;87.70;;;;;;4979906;28;20635;-71
2023/08/03 09:25:55;;;;;;;1.97;0.93;;;20.50;87.90;;;;;;4977173;28;21001;-71
2023/08/03 09:28:35;;;;;;;0.50;0.40;;;20.50;84.70;;;;;;4979665;28;21003;-72
2023/08/03 09:31:02;;;;;;;0.40;0.37;;;20.70;87.80;;;;;;4971540;28;20666;-71
2023/08/03 09:33:29;;;;;;;0.93;0.83;;;20.70;87.90;;;;;;4983427;28;20615;-71
2023/08/03 09:36:05;;;;;;;0.73;0.50;;;20.60;84.80;;;;;;4981111;28;20690;-71
2023/08/03 09:38:32;;;;;;;0.67;0.60;;;20.50;84.90;;;;;;4979928;28;20677;-71
2023/08/03 09:40:59;;;;;;;0.57;0.53;;;20.70;85.10;;;;;;4978773;28;20656;-71
2023/08/03 09:43:27;;;;;;;0.63;0.47;;;20.70;85.70;;;;;;4980719;28;20634;-71
2023/08/03 09:45:54;;;;;;;0.50;0.50;;;20.90;86.30;;;;;;4972645;28;20981;-71
2023/08/03 09:48:21;;;;;;;2.10;0.47;;;21.00;86.20;;;;;;4973715;28;20683;-71
2023/08/03 09:50:51;;;;;;;0.90;0.43;;;20.70;83.40;;;;;;4977604;28;20658;-71
2023/08/03 09:53:21;;;;;;;0.40;0.40;;;20.60;86.50;;;;;;4979136;28;20632;-71
2023/08/03 09:55:57;;;;;;;0.50;0.50;;;20.60;85.40;;;;;;4978426;28;20703;-71
2023/08/03 09:58:29;;;;;;;1.67;0.73;;;20.80;87.00;;;;;;4971799;28;20728;-71
2023/08/03 10:00:59;;;;;;;1.80;0.60;;;21.50;86.30;;;;;;4980345;28;20668;-71
2023/08/03 10:03:29;;;;;;;1.63;0.53;;;21.80;84.10;;;;;;4978162;28;20974;-71
2023/08/03 10:06:03;;;;;;;0.53;0.40;;;21.90;84.10;;;;;;4977587;28;20744;-72
2023/08/03 10:08:37;;;;;;;0.57;0.40;;;21.60;83.00;;;;;;4982492;28;20668;-71
2023/08/03 10:11:06;;;;;;;0.80;0.40;;;21.30;83.30;;;;;;4976438;28;20660;-71
2023/08/03 10:13:35;;;;;;;0.87;0.53;;;21.10;83.80;;;;;;4977509;28;20632;-71
2023/08/03 10:16:02;;;;;;;0.93;0.80;;;21.10;85.90;;;;;;4976892;28;20644;-71
2023/08/03 10:18:31;;;;;;;1.67;0.60;;;21.30;85.50;;;;;;4977088;28;20636;-71
2023/08/03 10:20:59;;;;;;;1.03;0.50;;;21.20;83.60;;;;;;4978166;28;20641;-72
2023/08/03 10:23:29;;;;;;;0.30;0.30;;;21.20;84.30;;;;;;4977276;28;20657;-72
2023/08/03 10:25:58;;;;;;;0.30;0.30;;;21.10;83.20;;;;;;4979663;28;21290;-72
2023/08/03 10:28:26;;;;;;;0.60;0.50;;;21.00;82.30;;;;;;4978892;28;20620;-72
2023/08/03 10:31:10;;;;;;;0.37;0.37;;;20.90;84.30;;;;;;4974847;28;20655;-72
2023/08/03 10:34:17;;;;;;;0.53;0.50;;;20.70;82.00;;;;;;4981496;28;20973;-71
2023/08/03 10:36:53;;;;;;;0.63;0.43;;;20.50;83.60;;;;;;4981071;28;20675;-72
2023/08/03 10:39:54;;;;;;;0.57;0.30;;;20.40;84.30;;;;;;4978015;28;20628;-71
2023/08/03 10:42:25;;;;;;;1.90;0.40;;;20.40;85.60;;;;;;4983883;28;21103;-71
2023/08/03 10:44:52;;;;;;;1.70;0.70;;;20.30;85.00;;;;;;4979427;28;20635;-71
2023/08/03 10:47:31;;;;;;;0.83;0.63;;;20.10;86.30;;;;;;4978740;28;21011;-71
2023/08/03 10:49:59;;;;;;;0.67;0.57;;;19.90;84.90;;;;;;4976901;28;20626;-71
2023/08/03 10:52:29;;;;;;;1.47;0.50;;;20.10;85.00;;;;;;4974387;28;20782;-72
2023/08/03 10:54:57;;;;;;;0.67;0.50;;;20.20;84.90;;;;;;4977594;28;20621;-72
2023/08/03 10:57:28;;;;;;;1.60;0.70;;;20.30;86.40;;;;;;4976637;28;21319;-71
2023/08/03 11:00:03;;;;;;;0.50;0.50;;;20.40;85.90;;;;;;4976980;28;20700;-71
2023/08/03 11:02:34;;;;;;;0.70;0.43;;;20.40;84.70;;;;;;4978701;28;20961;-71
2023/08/03 11:05:03;;;;;;;3.50;0.80;;;20.40;82.90;;;;;;4976356;28;20628;-71
2023/08/03 11:07:45;;;;;;;0.50;0.50;;;20.60;84.40;;;;;;4977663;28;20970;-71
2023/08/03 11:10:23;;;;;;;0.53;0.40;;;20.70;84.40;;;;;;4977118;28;20639;-71
2023/08/03 11:12:52;;;;;;;0.53;0.30;;;21.20;84.20;;;;;;4971828;28;20636;-72
2023/08/03 11:15:22;;;;;;;0.70;0.70;;;21.70;82.50;;;;;;4980231;28;20629;-71
2023/08/03 11:17:53;;;;;;;1.30;0.70;;;22.40;83.30;;;;;;4978258;28;20638;-71
2023/08/03 11:20:26;;;;;;;1.33;0.40;;;22.40;80.30;;;;;;4976791;28;20660;-71
2023/08/03 11:22:57;;;;;;;0.57;0.40;;;22.60;81.10;;;;;;4977139;28;21088;-71
2023/08/03 11:25:23;;;;;;;0.70;0.67;;;22.40;80.50;;;;;;4978129;28;21002;-70
2023/08/03 11:27:53;;;;;;;0.30;0.30;;;22.60;79.90;;;;;;4975247;28;21157;-70
2023/08/03 11:30:20;;;;;;;1.13;0.40;;;22.60;81.60;;;;;;4971497;28;21034;-70
2023/08/03 11:32:47;;;;;;;0.73;0.40;;;22.20;77.90;;;;;;4976829;28;20716;-70
2023/08/03 11:35:14;;;;;;;0.40;0.30;;;22.10;79.80;;;;;;4976380;28;20676;-71
2023/08/03 11:37:48;;;;;;;0.40;0.40;;;22.20;81.90;;;;;;4974367;28;20632;-70
2023/08/03 11:40:16;;;;;;;1.03;0.60;;;22.10;79.20;;;;;;4982157;28;20668;-70
2023/08/03 11:42:47;;;;;;;0.53;0.50;;;22.50;80.10;;;;;;4977072;28;21214;-70
2023/08/03 11:45:29;;;;;;;3.80;1.10;;;22.60;78.10;;;;;;4972579;28;20686;-70
2023/08/03 11:48:03;;;;;;;0.60;0.40;;;22.30;78.70;;;;;;4978511;28;20734;-71
2023/08/03 11:50:39;;;;;;;0.70;0.57;;;22.70;81.30;;;;;;4973639;28;20645;-71
2023/08/03 11:53:06;;;;;;;0.70;0.47;;;23.30;79.90;;;;;;4978381;28;20627;-71
2023/08/03 11:55:40;;;;;;;0.83;0.50;;;23.70;79.40;;;;;;4975287;28;20652;-70
2023/08/03 11:58:11;;;;;;;2.57;0.50;;;24.20;76.20;;;;;;4973233;28;20728;-71
2023/08/03 12:00:38;;;;;;;2.80;0.67;;;23.90;74.10;;;;;;4977100;28;20662;-70
2023/08/03 12:03:08;;;;;;;3.70;0.53;;;23.50;75.10;;;;;;4975487;28;20661;-70
2023/08/03 12:05:47;;;;;;;1.03;0.63;;;23.30;76.10;;;;;;4979624;28;20644;-71
2023/08/03 12:08:17;;;;;;;0.73;0.37;;;23.70;75.10;;;;;;4977484;28;20636;-71
2023/08/03 12:10:57;;;;;;;1.10;0.57;;;25.00;74.70;;;;;;4974854;28;20646;-71
2023/08/03 12:13:24;;;;;;;0.40;0.33;;;25.60;72.00;;;;;;4976783;28;20741;-71
2023/08/03 12:15:52;;;;;;;0.30;0.20;;;25.80;69.60;;;;;;4980099;28;21222;-71
2023/08/03 12:18:20;;;;;;;3.37;1.03;;;26.10;67.50;;;;;;4975448;28;20641;-71
2023/08/03 12:20:47;;;;;;;0.70;0.20;;;25.60;64.20;;;;;;4976669;28;20996;-71
2023/08/03 12:23:14;;;;;;;1.17;0.50;;;24.70;69.40;;;;;;4974896;28;20670;-71
2023/08/03 12:25:41;;;;;;;0.90;0.43;;;24.00;70.00;;;;;;4976455;28;20766;-71
2023/08/03 12:28:08;;;;;;;1.83;0.67;;;23.80;70.60;;;;;;4968295;28;20655;-72
2023/08/03 12:30:35;;;;;;;0.90;0.50;;;23.30;70.40;;;;;;4977920;28;20660;-71
2023/08/03 12:33:03;;;;;;;3.23;0.60;;;23.10;72.10;;;;;;4978966;28;21237;-71
2023/08/03 12:35:31;;;;;;;0.60;0.30;;;23.00;74.00;;;;;;4980145;28;20753;-71
2023/08/03 12:37:58;;;;;;;0.50;0.40;;;23.90;71.10;;;;;;4980563;28;20634;-71
2023/08/03 12:40:25;;;;;;;0.60;0.50;;;24.80;71.70;;;;;;4985313;28;20649;-71
2023/08/03 12:42:51;;;;;;;0.70;0.50;;;26.00;70.70;;;;;;4973541;28;20653;-72
2023/08/03 12:45:18;;;;;;;0.53;0.50;;;27.80;71.50;;;;;;4985844;28;20629;-72
2023/08/03 12:47:45;;;;;;;1.13;0.63;;;28.80;62.70;;;;;;4974100;28;20637;-72
2023/08/03 12:50:13;;;;;;;0.67;0.40;;;28.30;60.70;;;;;;4983120;28;20664;-72
2023/08/03 12:52:40;;;;;;;0.83;0.40;;;28.00;62.30;;;;;;4979671;28;20636;-72
2023/08/03 12:55:07;;;;;;;0.60;0.50;;;27.30;63.80;;;;;;4977667;28;21462;-72